createdAt,value
2022-10-10T00:01:22.539Z,44.31
2022-10-10T00:03:50.285Z,44.06
2022-10-10T00:06:18.001Z,44.35
2022-10-10T00:08:46.290Z,43.57
2022-10-10T00:11:15.787Z,44.10
2022-10-10T00:13:43.983Z,43.57
2022-10-10T00:16:12.005Z,43.17
2022-10-10T00:18:40.668Z,43.30
2022-10-10T00:21:08.850Z,43.17
2022-10-10T00:23:36.489Z,43.11
2022-10-10T00:26:08.724Z,42.59
2022-10-10T00:28:38.790Z,41.95
2022-10-10T00:31:08.980Z,41.83
2022-10-10T00:33:37.480Z,42.62
2022-10-10T00:36:06.283Z,41.92
2022-10-10T00:38:34.545Z,42.56
2022-10-10T00:41:02.201Z,41.77
2022-10-10T00:43:30.225Z,41.38
2022-10-10T00:45:58.117Z,41.55
2022-10-10T00:48:28.948Z,42.38
2022-10-10T00:51:00.476Z,42.22
2022-10-10T00:53:51.880Z,41.99
2022-10-10T00:56:21.970Z,42.19
2022-10-10T00:58:52.921Z,41.45
2022-10-10T01:01:20.419Z,41.53
2022-10-10T01:03:48.044Z,41.40
2022-10-10T01:06:15.904Z,41.98
2022-10-10T01:08:43.390Z,42.06
2022-10-10T01:11:29.329Z,42.57
2022-10-10T01:14:12.935Z,42.45
2022-10-10T01:17:01.809Z,41.63
2022-10-10T01:19:53.934Z,42.08
2022-10-10T01:22:49.996Z,41.47
2022-10-10T01:25:38.851Z,41.64
2022-10-10T01:28:37.443Z,40.66
2022-10-10T01:31:06.521Z,40.88
2022-10-10T01:34:01.536Z,41.66
2022-10-10T01:36:51.063Z,41.74
2022-10-10T01:39:24.174Z,40.18
2022-10-10T01:41:57.434Z,41.08
2022-10-10T01:44:24.849Z,41.64
2022-10-10T01:46:52.536Z,41.39
2022-10-10T01:49:22.702Z,42.57
2022-10-10T01:52:06.197Z,42.61
2022-10-10T01:54:42.302Z,41.58
2022-10-10T01:57:28.471Z,41.42
2022-10-10T01:59:59.285Z,40.61
2022-10-10T02:02:48.468Z,41.36
2022-10-10T02:05:37.354Z,42.39
2022-10-10T02:08:09.071Z,41.19
2022-10-10T02:10:51.741Z,41.94
2022-10-10T02:13:19.531Z,42.17
2022-10-10T02:15:53.430Z,41.84
2022-10-10T02:18:22.970Z,41.97
2022-10-10T02:20:51.712Z,42.76
2022-10-10T02:23:21.035Z,42.57
2022-10-10T02:25:52.710Z,42.79
2022-10-10T02:28:43.543Z,42.53
2022-10-10T02:31:14.911Z,43.10
2022-10-10T02:33:47.013Z,42.75
2022-10-10T02:36:16.283Z,42.72
2022-10-10T02:38:45.133Z,43.16
2022-10-10T02:41:14.946Z,43.13
2022-10-10T02:43:42.536Z,44.54
2022-10-10T02:46:12.661Z,42.70
2022-10-10T02:48:40.658Z,42.98
2022-10-10T02:51:08.632Z,43.24
2022-10-10T02:53:37.449Z,43.60
2022-10-10T02:56:05.449Z,44.93
2022-10-10T02:58:32.946Z,46.26
2022-10-10T03:01:00.717Z,45.71
2022-10-10T03:03:28.254Z,44.85
2022-10-10T03:05:55.720Z,44.92
2022-10-10T03:08:23.402Z,45.14
2022-10-10T03:10:55.928Z,44.07
2022-10-10T03:13:24.025Z,43.65
2022-10-10T03:15:51.961Z,43.65
2022-10-10T03:18:19.549Z,43.48
2022-10-10T03:20:51.064Z,43.17
2022-10-10T03:23:19.651Z,45.49
2022-10-10T03:25:47.302Z,43.85
2022-10-10T03:28:15.234Z,44.66
2022-10-10T03:30:42.937Z,44.78
2022-10-10T03:33:10.806Z,45.14
2022-10-10T03:35:38.370Z,44.67
2022-10-10T03:38:06.397Z,44.22
2022-10-10T03:40:34.586Z,44.98
2022-10-10T03:43:01.994Z,44.18
2022-10-10T03:45:29.404Z,43.61
2022-10-10T03:47:57.104Z,45.15
2022-10-10T03:50:24.582Z,44.60
2022-10-10T03:52:52.397Z,44.51
2022-10-10T03:55:20.374Z,45.07
2022-10-10T03:57:47.823Z,45.19
2022-10-10T04:00:15.320Z,45.23
2022-10-10T04:02:43.170Z,45.07
2022-10-10T04:05:10.645Z,46.28
2022-10-10T04:07:38.310Z,44.77
2022-10-10T04:10:06.530Z,44.24
2022-10-10T04:12:34.016Z,44.86
2022-10-10T04:15:01.491Z,44.52
2022-10-10T04:17:29.168Z,44.84
2022-10-10T04:19:56.617Z,44.84
2022-10-10T04:22:24.076Z,44.75
2022-10-10T04:24:51.717Z,44.42
2022-10-10T04:27:19.225Z,44.15
2022-10-10T04:29:46.605Z,46.11
2022-10-10T04:32:14.362Z,45.29
2022-10-10T04:34:41.762Z,44.62
2022-10-10T04:37:09.203Z,44.29
2022-10-10T04:39:36.935Z,44.37
2022-10-10T04:42:04.616Z,44.42
2022-10-10T04:44:32.100Z,44.10
2022-10-10T04:46:59.837Z,43.97
2022-10-10T04:49:27.331Z,44.78
2022-10-10T04:51:54.762Z,45.01
2022-10-10T04:54:22.558Z,44.45
2022-10-10T04:56:50.020Z,44.87
2022-10-10T04:59:17.532Z,44.55
2022-10-10T05:01:45.212Z,45.08
2022-10-10T05:04:13.646Z,45.32
2022-10-10T05:06:41.044Z,46.07
2022-10-10T05:09:08.698Z,46.01
2022-10-10T05:11:36.249Z,44.96
2022-10-10T05:14:04.156Z,46.73
2022-10-10T05:16:31.806Z,45.82
2022-10-10T05:18:59.259Z,45.81
2022-10-10T05:21:26.663Z,45.23
2022-10-10T05:23:54.620Z,46.63
2022-10-10T05:26:22.062Z,45.47
2022-10-10T05:28:49.505Z,46.38
2022-10-10T05:31:17.225Z,47.58
2022-10-10T05:33:44.646Z,46.99
2022-10-10T05:36:13.791Z,46.07
2022-10-10T05:38:42.038Z,45.74
2022-10-10T05:41:09.609Z,45.53
2022-10-10T05:43:37.056Z,47.61
2022-10-10T05:46:05.286Z,45.32
2022-10-10T05:48:32.793Z,45.48
2022-10-10T05:51:00.808Z,46.50
2022-10-10T05:53:30.198Z,45.87
2022-10-10T05:55:57.696Z,46.33
2022-10-10T05:58:26.384Z,45.65
2022-10-10T06:00:54.257Z,45.49
2022-10-10T06:03:21.978Z,46.67
2022-10-10T06:05:51.738Z,45.22
2022-10-10T06:08:19.154Z,46.80
2022-10-10T06:10:47.225Z,45.70
2022-10-10T06:13:21.629Z,45.06
2022-10-10T06:15:52.336Z,45.90
2022-10-10T06:18:19.774Z,46.56
2022-10-10T06:20:47.219Z,46.03
2022-10-10T06:23:14.959Z,45.51
2022-10-10T06:25:42.481Z,46.28
2022-10-10T06:28:10.900Z,46.72
2022-10-10T06:30:44.978Z,45.63
2022-10-10T06:33:13.081Z,46.24
2022-10-10T06:35:48.508Z,46.03
2022-10-10T06:38:16.989Z,45.32
2022-10-10T06:40:45.558Z,45.52
2022-10-10T06:43:14.835Z,44.79
2022-10-10T06:45:44.680Z,44.41
2022-10-10T06:48:14.026Z,45.14
2022-10-10T06:50:42.177Z,45.93
2022-10-10T06:53:09.562Z,46.55
2022-10-10T06:55:37.269Z,45.90
2022-10-10T06:58:04.773Z,45.81
2022-10-10T07:00:32.241Z,45.02
2022-10-10T07:02:59.932Z,44.81
2022-10-10T07:05:27.386Z,46.18
2022-10-10T07:07:54.817Z,47.12
2022-10-10T07:10:22.509Z,46.43
2022-10-10T07:12:49.985Z,46.20
2022-10-10T07:15:17.479Z,45.45
2022-10-10T07:17:46.569Z,45.28
2022-10-10T07:20:16.858Z,46.32
2022-10-10T07:22:44.273Z,45.90
2022-10-10T07:25:11.962Z,45.91
2022-10-10T07:27:39.394Z,44.98
2022-10-10T07:30:07.337Z,44.59
2022-10-10T07:32:35.041Z,44.95
2022-10-10T07:35:02.674Z,44.92
2022-10-10T07:37:30.041Z,45.49
2022-10-10T07:39:57.857Z,45.43
2022-10-10T07:42:25.290Z,45.79
2022-10-10T07:44:52.713Z,45.08
2022-10-10T07:47:20.451Z,46.02
2022-10-10T07:49:47.873Z,45.13
2022-10-10T07:52:15.664Z,44.52
2022-10-10T07:54:43.426Z,44.61
2022-10-10T07:57:10.877Z,45.58
2022-10-10T07:59:40.660Z,45.11
2022-10-10T08:02:09.607Z,44.45
2022-10-10T08:04:37.362Z,44.54
2022-10-10T08:07:04.796Z,45.25
2022-10-10T08:09:32.390Z,44.66
2022-10-10T08:12:00.435Z,44.32
2022-10-10T08:14:27.955Z,45.11
2022-10-10T08:16:55.374Z,45.40
2022-10-10T08:19:23.070Z,43.48
2022-10-10T08:21:50.633Z,44.30
2022-10-10T08:24:18.048Z,44.03
2022-10-10T08:26:45.829Z,45.25
2022-10-10T08:29:13.294Z,45.64
2022-10-10T08:31:40.684Z,45.33
2022-10-10T08:34:09.420Z,45.03
2022-10-10T08:36:36.906Z,44.24
2022-10-10T08:39:04.436Z,44.57
2022-10-10T08:41:41.653Z,44.05
2022-10-10T08:44:21.894Z,43.16
2022-10-10T08:47:05.148Z,43.26
2022-10-10T08:49:39.454Z,42.34
2022-10-10T08:52:13.393Z,42.63
2022-10-10T08:54:41.957Z,42.26
2022-10-10T08:57:24.626Z,41.24
2022-10-10T08:59:55.172Z,41.69
2022-10-10T09:02:55.845Z,40.71
2022-10-10T09:05:52.641Z,41.33
2022-10-10T09:08:29.989Z,40.77
2022-10-10T09:11:10.459Z,40.37
2022-10-10T09:14:06.064Z,41.18
2022-10-10T09:17:21.675Z,40.49
2022-10-10T09:19:59.067Z,40.24
2022-10-10T09:22:31.409Z,39.45
2022-10-10T09:25:21.734Z,39.83
2022-10-10T09:28:01.809Z,39.84
2022-10-10T09:30:31.677Z,39.47
2022-10-10T09:33:28.709Z,39.68
2022-10-10T09:35:58.315Z,40.71
2022-10-10T09:38:41.843Z,39.57
2022-10-10T09:41:28.466Z,38.75
2022-10-10T09:43:57.316Z,38.73
2022-10-10T09:46:26.011Z,38.94
2022-10-10T09:48:54.859Z,38.79
2022-10-10T09:51:22.430Z,38.30
2022-10-10T09:53:50.591Z,38.43
2022-10-10T09:56:38.802Z,38.24
2022-10-10T09:59:06.529Z,39.87
2022-10-10T10:01:34.099Z,39.13
2022-10-10T10:04:34.242Z,39.24
2022-10-10T10:07:20.448Z,38.02
2022-10-10T10:09:50.401Z,37.67
2022-10-10T10:12:23.062Z,37.00
2022-10-10T10:14:53.086Z,37.14
2022-10-10T10:17:22.498Z,36.34
2022-10-10T10:19:50.496Z,36.94
2022-10-10T10:22:33.174Z,37.44
2022-10-10T10:25:32.014Z,37.20
2022-10-10T10:28:11.717Z,38.29
2022-10-10T10:30:40.349Z,36.66
2022-10-10T10:33:46.155Z,36.85
2022-10-10T10:36:46.209Z,36.66
2022-10-10T10:39:35.410Z,36.53
2022-10-10T10:42:08.035Z,36.30
2022-10-10T10:45:17.213Z,35.89
2022-10-10T10:47:56.113Z,36.66
2022-10-10T10:50:45.598Z,36.99
2022-10-10T10:53:28.802Z,35.64
2022-10-10T10:56:46.198Z,36.53
2022-10-10T11:00:26.173Z,35.18
2022-10-10T11:02:31.248Z,33.99
2022-10-10T11:05:31.107Z,33.89
2022-10-10T11:08:36.748Z,34.15
2022-10-10T11:11:18.644Z,34.08
2022-10-10T11:13:52.627Z,34.19
2022-10-10T11:16:47.273Z,33.60
2022-10-10T11:19:15.077Z,33.28
2022-10-10T11:21:54.989Z,32.70
2022-10-10T11:24:39.542Z,31.98
2022-10-10T11:27:14.198Z,33.08
2022-10-10T11:29:54.057Z,32.43
2022-10-10T11:32:28.554Z,32.11
2022-10-10T11:35:03.883Z,32.20
2022-10-10T11:37:34.721Z,32.74
2022-10-10T11:40:06.115Z,33.21
2022-10-10T11:42:38.183Z,33.42
2022-10-10T11:45:30.974Z,33.32
2022-10-10T11:48:21.742Z,33.53
2022-10-10T11:50:54.255Z,33.44
2022-10-10T11:53:37.544Z,33.69
2022-10-10T11:56:38.106Z,32.04
2022-10-10T11:59:45.922Z,32.79
2022-10-10T12:02:23.347Z,31.61
2022-10-10T12:04:53.631Z,31.91
2022-10-10T12:07:43.973Z,31.70
2022-10-10T12:10:17.651Z,32.25
2022-10-10T12:12:47.403Z,32.43
2022-10-10T12:15:29.411Z,32.26
2022-10-10T12:17:57.242Z,31.46
2022-10-10T12:20:28.014Z,32.28
2022-10-10T12:23:28.017Z,31.07
2022-10-10T12:25:55.756Z,31.67
2022-10-10T12:28:27.058Z,31.95
2022-10-10T12:30:58.717Z,31.44
2022-10-10T12:33:26.716Z,31.48
2022-10-10T12:35:54.206Z,32.12
2022-10-10T12:38:25.800Z,31.94
2022-10-10T12:41:08.527Z,32.14
2022-10-10T12:43:40.637Z,32.14
2022-10-10T12:46:25.410Z,31.64
2022-10-10T12:49:00.186Z,30.68
2022-10-10T12:51:29.341Z,30.58
2022-10-10T12:53:58.567Z,30.45
2022-10-10T12:57:04.316Z,31.61
2022-10-10T12:59:35.255Z,32.09
2022-10-10T13:02:06.705Z,33.55
2022-10-10T13:04:34.500Z,32.72
2022-10-10T13:07:02.271Z,32.51
2022-10-10T13:09:35.609Z,31.55
2022-10-10T13:12:06.461Z,31.46
2022-10-10T13:14:42.774Z,32.41
2022-10-10T13:17:41.158Z,32.37
2022-10-10T13:20:27.188Z,31.69
2022-10-10T13:22:56.099Z,31.01
2022-10-10T13:25:24.159Z,29.92
2022-10-10T13:27:51.804Z,30.74
2022-10-10T13:30:21.122Z,31.18
2022-10-10T13:32:50.026Z,30.69
2022-10-10T13:35:20.806Z,31.02
2022-10-10T13:37:58.424Z,31.18
2022-10-10T13:40:27.026Z,32.35
2022-10-10T13:42:55.138Z,30.88
2022-10-10T13:45:26.615Z,31.01
2022-10-10T13:48:00.854Z,30.69
2022-10-10T13:50:34.123Z,29.31
2022-10-10T13:53:26.521Z,29.60
2022-10-10T13:56:09.250Z,29.06
2022-10-10T13:58:42.866Z,29.44
2022-10-10T14:01:25.880Z,29.61
2022-10-10T14:03:55.729Z,29.49
2022-10-10T14:06:26.063Z,29.33
2022-10-10T14:08:55.178Z,30.42
2022-10-10T14:11:24.271Z,30.25
2022-10-10T14:13:54.225Z,31.07
2022-10-10T14:16:24.397Z,30.89
2022-10-10T14:18:52.568Z,30.45
2022-10-10T14:21:20.308Z,29.30
2022-10-10T14:23:48.522Z,29.50
2022-10-10T14:26:18.956Z,29.84
2022-10-10T14:28:46.899Z,29.68
2022-10-10T14:31:15.294Z,30.05
2022-10-10T14:33:42.830Z,29.71
2022-10-10T14:36:12.199Z,29.63
2022-10-10T14:38:40.044Z,29.97
2022-10-10T14:41:07.747Z,29.98
2022-10-10T14:43:35.283Z,30.21
2022-10-10T14:46:03.090Z,30.01
2022-10-10T14:48:30.541Z,30.35
2022-10-10T14:50:57.985Z,30.41
2022-10-10T14:53:25.812Z,30.04
2022-10-10T14:55:56.289Z,30.16
2022-10-10T14:58:23.970Z,30.50
2022-10-10T15:00:53.137Z,30.77
2022-10-10T15:03:21.255Z,30.97
2022-10-10T15:05:49.049Z,31.30
2022-10-10T15:08:18.739Z,31.76
2022-10-10T15:10:46.767Z,31.74
2022-10-10T15:13:15.654Z,31.90
2022-10-10T15:15:43.347Z,31.98
2022-10-10T15:18:32.067Z,32.41
2022-10-10T15:20:58.883Z,32.91
2022-10-10T15:23:27.080Z,33.03
2022-10-10T15:25:54.576Z,32.97
2022-10-10T15:28:22.330Z,33.01
2022-10-10T15:30:49.781Z,33.17
2022-10-10T15:33:17.267Z,33.20
2022-10-10T15:36:08.034Z,33.25
2022-10-10T15:38:34.720Z,33.24
2022-10-10T15:41:05.174Z,33.28
2022-10-10T15:43:42.536Z,33.19
2022-10-10T15:46:10.649Z,33.22
2022-10-10T15:48:38.182Z,33.51
2022-10-10T15:51:07.285Z,33.27
2022-10-10T15:53:35.433Z,33.55
2022-10-10T15:56:10.232Z,33.31
2022-10-10T15:58:38.957Z,33.26
2022-10-10T16:01:15.539Z,33.29
2022-10-10T16:03:43.665Z,33.42
2022-10-10T16:06:11.540Z,33.74
2022-10-10T16:08:39.356Z,33.79
2022-10-10T16:11:09.771Z,33.80
2022-10-10T16:13:39.312Z,33.75
2022-10-10T16:16:09.070Z,33.78
2022-10-10T16:18:40.344Z,34.30
2022-10-10T16:21:19.729Z,34.38
2022-10-10T16:23:48.561Z,34.47
2022-10-10T16:26:22.408Z,34.76
2022-10-10T16:28:50.386Z,35.15
2022-10-10T16:31:19.674Z,35.36
2022-10-10T16:33:48.368Z,35.45
2022-10-10T16:36:21.713Z,35.51
2022-10-10T16:38:50.113Z,35.85
2022-10-10T16:41:42.482Z,36.15
2022-10-10T16:44:06.627Z,36.39
2022-10-10T16:46:34.025Z,36.20
2022-10-10T16:49:01.632Z,36.22
2022-10-10T16:51:30.213Z,36.29
2022-10-10T16:54:02.005Z,36.27
2022-10-10T16:56:30.283Z,36.46
2022-10-10T16:58:59.764Z,36.64
2022-10-10T17:01:28.710Z,36.58
2022-10-10T17:03:58.946Z,36.79
2022-10-10T17:06:30.084Z,36.86
2022-10-10T17:09:03.359Z,36.86
2022-10-10T17:11:31.250Z,37.06
2022-10-10T17:13:59.475Z,36.98
2022-10-10T17:19:16.293Z,37.64
2022-10-10T17:21:44.093Z,37.51
2022-10-10T17:24:11.536Z,37.26
2022-10-10T17:26:38.988Z,37.62
2022-10-10T17:29:06.918Z,37.46
2022-10-10T17:31:34.479Z,37.89
2022-10-10T17:34:01.891Z,37.89
2022-10-10T17:36:29.689Z,37.83
2022-10-10T17:38:57.311Z,37.85
2022-10-10T17:41:24.808Z,37.89
2022-10-10T17:43:52.784Z,38.09
2022-10-10T17:46:40.880Z,39.19
2022-10-10T17:49:10.609Z,39.16
2022-10-10T17:51:39.728Z,39.13
2022-10-10T17:54:07.546Z,39.29
2022-10-10T17:56:35.752Z,38.41
2022-10-10T17:59:06.604Z,38.42
2022-10-10T18:01:35.366Z,38.99
2022-10-10T18:04:03.468Z,39.67
2022-10-10T18:06:31.671Z,40.19
2022-10-10T18:08:59.993Z,40.36
2022-10-10T18:11:30.510Z,40.72
2022-10-10T18:14:00.695Z,40.55
2022-10-10T18:16:32.970Z,41.42
2022-10-10T18:19:01.449Z,41.47
2022-10-10T18:21:29.266Z,42.13
2022-10-10T18:23:56.794Z,42.55
2022-10-10T18:26:26.006Z,42.87
2022-10-10T18:28:55.758Z,43.24
2022-10-10T18:31:28.996Z,43.35
2022-10-10T18:33:57.121Z,43.58
2022-10-10T18:36:27.652Z,43.73
2022-10-10T18:38:59.427Z,43.84
2022-10-10T18:41:33.951Z,44.13
2022-10-10T18:44:13.249Z,44.26
2022-10-10T18:46:41.014Z,44.57
2022-10-10T18:49:09.155Z,44.65
2022-10-10T18:51:37.466Z,44.95
2022-10-10T18:54:08.422Z,45.18
2022-10-10T18:56:38.271Z,45.45
2022-10-10T18:59:07.486Z,45.31
2022-10-10T19:01:36.760Z,45.33
2022-10-10T19:04:05.228Z,45.34
2022-10-10T19:06:33.245Z,45.30
2022-10-10T19:09:01.641Z,45.59
2022-10-10T19:11:31.761Z,45.93
2022-10-10T19:14:01.490Z,45.73
2022-10-10T19:16:29.100Z,45.52
2022-10-10T19:18:58.746Z,45.80
2022-10-10T19:21:29.569Z,45.67
2022-10-10T19:23:59.866Z,46.10
2022-10-10T19:26:33.173Z,45.83
2022-10-10T19:29:07.024Z,45.35
2022-10-10T19:31:36.394Z,44.84
2022-10-10T19:34:04.121Z,44.30
2022-10-10T19:36:31.556Z,44.12
2022-10-10T19:39:00.232Z,43.95
2022-10-10T19:41:28.323Z,44.14
2022-10-10T19:43:58.029Z,43.67
2022-10-10T19:46:27.725Z,43.23
2022-10-10T19:48:58.075Z,43.11
2022-10-10T19:51:27.937Z,44.17
2022-10-10T19:53:56.357Z,44.70
2022-10-10T19:56:24.961Z,45.31
2022-10-10T19:58:57.351Z,45.46
2022-10-10T20:01:29.383Z,45.25
2022-10-10T20:03:58.423Z,45.17
2022-10-10T20:06:26.352Z,45.65
2022-10-10T20:08:54.122Z,45.63
2022-10-10T20:11:23.310Z,46.00
2022-10-10T20:13:55.258Z,45.64
2022-10-10T20:16:24.296Z,46.05
2022-10-10T20:18:51.877Z,46.39
2022-10-10T20:21:22.979Z,46.96
2022-10-10T20:23:50.897Z,47.04
2022-10-10T20:26:21.369Z,47.13
2022-10-10T20:28:50.215Z,46.85
2022-10-10T20:31:29.931Z,46.78
2022-10-10T20:33:58.876Z,46.90
2022-10-10T20:36:27.180Z,47.02
2022-10-10T20:38:56.295Z,48.44
2022-10-10T20:41:25.489Z,47.88
2022-10-10T20:44:02.492Z,48.45
2022-10-10T20:46:32.688Z,48.01
2022-10-10T20:49:02.701Z,47.90
2022-10-10T20:51:30.571Z,48.07
2022-10-10T20:54:03.227Z,48.32
2022-10-10T20:56:31.576Z,47.96
2022-10-10T20:58:59.954Z,48.49
2022-10-10T21:01:29.445Z,48.03
2022-10-10T21:03:58.672Z,48.04
2022-10-10T21:06:30.187Z,47.82
2022-10-10T21:09:00.173Z,47.28
2022-10-10T21:11:27.832Z,47.17
2022-10-10T21:13:57.441Z,46.91
2022-10-10T21:16:27.991Z,47.21
2022-10-10T21:18:58.353Z,47.71
2022-10-10T21:21:28.310Z,47.99
2022-10-10T21:23:56.660Z,48.29
2022-10-10T21:26:26.655Z,48.03
2022-10-10T21:28:55.071Z,48.17
2022-10-10T21:31:27.609Z,47.92
2022-10-10T21:33:55.894Z,48.13
2022-10-10T21:36:25.238Z,48.71
2022-10-10T21:38:56.934Z,48.99
2022-10-10T21:41:25.102Z,48.72
2022-10-10T21:43:54.975Z,48.65
2022-10-10T21:46:24.531Z,48.83
2022-10-10T21:48:53.381Z,48.85
2022-10-10T21:51:21.490Z,49.10
2022-10-10T21:53:49.582Z,48.94
2022-10-10T21:56:17.846Z,48.68
2022-10-10T21:58:45.355Z,48.66
2022-10-10T22:01:20.919Z,49.15
2022-10-10T22:03:50.354Z,49.14
2022-10-10T22:06:20.710Z,49.42
2022-10-10T22:08:49.220Z,50.00
2022-10-10T22:11:19.570Z,49.62
2022-10-10T22:13:47.294Z,49.64
2022-10-10T22:16:14.938Z,49.63
2022-10-10T22:18:42.679Z,49.69
2022-10-10T22:21:12.904Z,49.78
2022-10-10T22:23:40.529Z,49.57
2022-10-10T22:26:10.787Z,50.06
2022-10-10T22:28:38.909Z,50.27
2022-10-10T22:31:12.088Z,49.98
2022-10-10T22:33:39.874Z,50.07
2022-10-10T22:36:08.637Z,50.32
2022-10-10T22:38:38.801Z,50.09
2022-10-10T22:41:06.949Z,50.07
2022-10-10T22:43:34.698Z,50.55
2022-10-10T22:46:02.572Z,50.57
2022-10-10T22:48:30.773Z,50.96
2022-10-10T22:51:03.707Z,50.84
2022-10-10T22:53:31.674Z,50.93
2022-10-10T22:55:59.526Z,50.59
2022-10-10T22:58:27.122Z,50.48
2022-10-10T23:00:54.873Z,50.41
2022-10-10T23:03:22.398Z,50.69
2022-10-10T23:05:49.892Z,50.66
2022-10-10T23:08:17.581Z,50.62
2022-10-10T23:10:45.641Z,50.66
2022-10-10T23:13:13.080Z,50.76
2022-10-10T23:15:40.896Z,50.87
2022-10-10T23:18:08.348Z,51.25
2022-10-10T23:20:35.880Z,51.47
2022-10-10T23:23:03.572Z,51.60
2022-10-10T23:25:31.083Z,51.87
2022-10-10T23:27:58.812Z,51.88
2022-10-10T23:30:27.418Z,51.56
2022-10-10T23:32:54.877Z,51.39
2022-10-10T23:35:22.375Z,51.21
2022-10-10T23:37:50.070Z,51.21
2022-10-10T23:40:17.611Z,51.46
2022-10-10T23:42:45.112Z,51.47
2022-10-10T23:45:12.832Z,51.47
2022-10-10T23:47:40.245Z,51.53
2022-10-10T23:50:08.249Z,51.50
2022-10-10T23:52:36.001Z,51.45
2022-10-10T23:55:03.761Z,51.37
2022-10-10T23:57:31.626Z,51.56
2022-10-10T23:59:59.550Z,51.65
